sensor_id;sensor_type;location;lat;lon;timestamp;P1;durP1;ratioP1;P2;durP2;ratioP2
60016;SDS011;45869;52.698;6.210;2022-10-16T00:02:42;5.15;;;1.48;;
60016;SDS011;45869;52.698;6.210;2022-10-16T00:05:11;4.72;;;1.33;;
60016;SDS011;45869;52.698;6.210;2022-10-16T00:07:37;6.35;;;1.80;;
60016;SDS011;45869;52.698;6.210;2022-10-16T00:10:10;7.10;;;1.48;;
60016;SDS011;45869;52.698;6.210;2022-10-16T00:12:36;5.60;;;1.55;;
60016;SDS011;45869;52.698;6.210;2022-10-16T00:15:02;5.80;;;1.50;;
60016;SDS011;45869;52.698;6.210;2022-10-16T00:17:29;5.07;;;1.50;;
60016;SDS011;45869;52.698;6.210;2022-10-16T00:19:56;5.95;;;1.50;;
60016;SDS011;45869;52.698;6.210;2022-10-16T00:22:22;5.97;;;1.75;;
60016;SDS011;45869;52.698;6.210;2022-10-16T00:24:49;5.75;;;1.80;;
60016;SDS011;45869;52.698;6.210;2022-10-16T00:27:15;4.75;;;1.20;;
60016;SDS011;45869;52.698;6.210;2022-10-16T00:29:41;7.75;;;1.60;;
60016;SDS011;45869;52.698;6.210;2022-10-16T00:32:08;4.63;;;1.30;;
60016;SDS011;45869;52.698;6.210;2022-10-16T00:34:36;8.70;;;1.73;;
60016;SDS011;45869;52.698;6.210;2022-10-16T00:37:03;4.88;;;1.35;;
60016;SDS011;45869;52.698;6.210;2022-10-16T00:39:29;5.03;;;1.50;;
60016;SDS011;45869;52.698;6.210;2022-10-16T00:41:55;7.22;;;1.50;;
60016;SDS011;45869;52.698;6.210;2022-10-16T00:47:34;6.25;;;1.60;;
60016;SDS011;45869;52.698;6.210;2022-10-16T00:50:08;6.95;;;1.90;;
60016;SDS011;45869;52.698;6.210;2022-10-16T00:52:35;10.10;;;1.67;;
60016;SDS011;45869;52.698;6.210;2022-10-16T00:55:05;4.88;;;1.67;;
60016;SDS011;45869;52.698;6.210;2022-10-16T00:57:32;6.10;;;1.60;;
60016;SDS011;45869;52.698;6.210;2022-10-16T00:59:58;6.40;;;1.55;;
60016;SDS011;45869;52.698;6.210;2022-10-16T01:05:17;6.05;;;1.50;;
60016;SDS011;45869;52.698;6.210;2022-10-16T01:10:48;7.65;;;1.48;;
60016;SDS011;45869;52.698;6.210;2022-10-16T01:13:21;3.72;;;1.20;;
60016;SDS011;45869;52.698;6.210;2022-10-16T01:15:50;5.25;;;1.38;;
60016;SDS011;45869;52.698;6.210;2022-10-16T01:24:46;6.57;;;1.33;;
60016;SDS011;45869;52.698;6.210;2022-10-16T01:27:15;6.10;;;1.65;;
60016;SDS011;45869;52.698;6.210;2022-10-16T01:29:52;5.85;;;1.60;;
60016;SDS011;45869;52.698;6.210;2022-10-16T01:32:28;4.68;;;1.67;;
60016;SDS011;45869;52.698;6.210;2022-10-16T01:35:18;4.47;;;1.50;;
60016;SDS011;45869;52.698;6.210;2022-10-16T01:37:46;7.43;;;1.80;;
60016;SDS011;45869;52.698;6.210;2022-10-16T01:40:17;6.32;;;1.83;;
60016;SDS011;45869;52.698;6.210;2022-10-16T01:45:14;8.70;;;1.52;;
60016;SDS011;45869;52.698;6.210;2022-10-16T01:47:52;7.15;;;1.60;;
60016;SDS011;45869;52.698;6.210;2022-10-16T01:50:19;3.67;;;1.42;;
60016;SDS011;45869;52.698;6.210;2022-10-16T01:52:47;5.85;;;1.55;;
60016;SDS011;45869;52.698;6.210;2022-10-16T01:55:14;7.05;;;1.90;;
60016;SDS011;45869;52.698;6.210;2022-10-16T01:57:42;7.57;;;1.80;;
60016;SDS011;45869;52.698;6.210;2022-10-16T02:00:11;5.82;;;1.42;;
60016;SDS011;45869;52.698;6.210;2022-10-16T02:02:44;5.03;;;1.70;;
60016;SDS011;45869;52.698;6.210;2022-10-16T02:05:29;4.47;;;1.50;;
60016;SDS011;45869;52.698;6.210;2022-10-16T02:07:56;3.72;;;1.70;;
60016;SDS011;45869;52.698;6.210;2022-10-16T02:10:23;4.88;;;1.83;;
60016;SDS011;45869;52.698;6.210;2022-10-16T02:12:53;8.98;;;1.77;;
60016;SDS011;45869;52.698;6.210;2022-10-16T02:18:12;4.95;;;1.85;;
60016;SDS011;45869;52.698;6.210;2022-10-16T02:21:24;6.80;;;1.52;;
60016;SDS011;45869;52.698;6.210;2022-10-16T02:23:40;6.07;;;1.70;;
60016;SDS011;45869;52.698;6.210;2022-10-16T02:26:20;5.85;;;1.60;;
60016;SDS011;45869;52.698;6.210;2022-10-16T02:29:11;5.95;;;1.80;;
60016;SDS011;45869;52.698;6.210;2022-10-16T02:34:47;4.38;;;1.65;;
60016;SDS011;45869;52.698;6.210;2022-10-16T02:37:17;5.25;;;1.80;;
60016;SDS011;45869;52.698;6.210;2022-10-16T02:39:44;3.33;;;1.63;;
60016;SDS011;45869;52.698;6.210;2022-10-16T02:45:33;5.78;;;1.50;;
60016;SDS011;45869;52.698;6.210;2022-10-16T02:51:13;4.95;;;1.60;;
60016;SDS011;45869;52.698;6.210;2022-10-16T02:53:39;6.45;;;1.77;;
60016;SDS011;45869;52.698;6.210;2022-10-16T02:56:06;4.68;;;1.55;;
60016;SDS011;45869;52.698;6.210;2022-10-16T02:58:50;4.47;;;1.50;;
60016;SDS011;45869;52.698;6.210;2022-10-16T03:01:21;3.40;;;1.40;;
60016;SDS011;45869;52.698;6.210;2022-10-16T03:03:47;5.07;;;1.58;;
60016;SDS011;45869;52.698;6.210;2022-10-16T03:06:16;3.42;;;1.48;;
60016;SDS011;45869;52.698;6.210;2022-10-16T03:08:42;2.88;;;1.30;;
60016;SDS011;45869;52.698;6.210;2022-10-16T03:11:08;5.85;;;1.52;;
60016;SDS011;45869;52.698;6.210;2022-10-16T03:13:34;3.05;;;1.20;;
60016;SDS011;45869;52.698;6.210;2022-10-16T03:16:00;2.92;;;1.40;;
60016;SDS011;45869;52.698;6.210;2022-10-16T03:18:26;10.32;;;1.50;;
60016;SDS011;45869;52.698;6.210;2022-10-16T03:20:52;4.70;;;1.20;;
60016;SDS011;45869;52.698;6.210;2022-10-16T03:32:23;5.63;;;1.20;;
60016;SDS011;45869;52.698;6.210;2022-10-16T03:34:51;5.18;;;1.40;;
60016;SDS011;45869;52.698;6.210;2022-10-16T03:37:25;4.50;;;1.38;;
60016;SDS011;45869;52.698;6.210;2022-10-16T03:40:28;4.53;;;1.52;;
60016;SDS011;45869;52.698;6.210;2022-10-16T03:42:57;3.95;;;1.50;;
60016;SDS011;45869;52.698;6.210;2022-10-16T03:45:23;6.78;;;1.50;;
60016;SDS011;45869;52.698;6.210;2022-10-16T03:47:49;4.00;;;1.80;;
60016;SDS011;45869;52.698;6.210;2022-10-16T03:50:21;4.57;;;1.38;;
60016;SDS011;45869;52.698;6.210;2022-10-16T03:53:00;3.95;;;1.40;;
60016;SDS011;45869;52.698;6.210;2022-10-16T04:01:55;4.25;;;1.75;;
60016;SDS011;45869;52.698;6.210;2022-10-16T04:08:04;6.40;;;1.80;;
60016;SDS011;45869;52.698;6.210;2022-10-16T04:10:51;4.90;;;1.58;;
60016;SDS011;45869;52.698;6.210;2022-10-16T04:16:22;8.45;;;1.70;;
60016;SDS011;45869;52.698;6.210;2022-10-16T04:21:15;4.03;;;1.80;;
60016;SDS011;45869;52.698;6.210;2022-10-16T04:23:41;4.78;;;2.10;;
60016;SDS011;45869;52.698;6.210;2022-10-16T04:26:10;3.45;;;1.88;;
60016;SDS011;45869;52.698;6.210;2022-10-16T04:28:48;5.30;;;1.77;;
60016;SDS011;45869;52.698;6.210;2022-10-16T04:31:21;3.92;;;1.75;;
60016;SDS011;45869;52.698;6.210;2022-10-16T04:33:58;4.03;;;2.05;;
60016;SDS011;45869;52.698;6.210;2022-10-16T04:36:25;5.28;;;1.90;;
60016;SDS011;45869;52.698;6.210;2022-10-16T04:38:56;6.22;;;2.15;;
60016;SDS011;45869;52.698;6.210;2022-10-16T04:41:22;3.40;;;1.90;;
60016;SDS011;45869;52.698;6.210;2022-10-16T04:43:48;4.38;;;2.10;;
60016;SDS011;45869;52.698;6.210;2022-10-16T04:46:23;5.15;;;2.17;;
60016;SDS011;45869;52.698;6.210;2022-10-16T04:48:49;6.80;;;2.33;;
60016;SDS011;45869;52.698;6.210;2022-10-16T04:51:15;5.07;;;2.03;;
60016;SDS011;45869;52.698;6.210;2022-10-16T04:53:57;4.10;;;2.20;;
60016;SDS011;45869;52.698;6.210;2022-10-16T04:57:02;4.32;;;2.20;;
60016;SDS011;45869;52.698;6.210;2022-10-16T04:59:29;3.35;;;2.03;;
60016;SDS011;45869;52.698;6.210;2022-10-16T05:01:55;4.45;;;2.30;;
60016;SDS011;45869;52.698;6.210;2022-10-16T05:04:22;4.28;;;2.30;;
60016;SDS011;45869;52.698;6.210;2022-10-16T05:06:57;4.45;;;2.00;;
60016;SDS011;45869;52.698;6.210;2022-10-16T05:09:26;5.93;;;2.30;;
60016;SDS011;45869;52.698;6.210;2022-10-16T05:11:52;5.38;;;2.40;;
60016;SDS011;45869;52.698;6.210;2022-10-16T05:14:18;5.93;;;2.35;;
60016;SDS011;45869;52.698;6.210;2022-10-16T05:16:44;3.55;;;2.05;;
60016;SDS011;45869;52.698;6.210;2022-10-16T05:19:10;3.70;;;2.05;;
60016;SDS011;45869;52.698;6.210;2022-10-16T05:21:43;4.72;;;2.20;;
60016;SDS011;45869;52.698;6.210;2022-10-16T05:24:12;5.93;;;2.22;;
60016;SDS011;45869;52.698;6.210;2022-10-16T05:29:45;4.72;;;2.25;;
60016;SDS011;45869;52.698;6.210;2022-10-16T05:32:15;5.00;;;2.20;;
60016;SDS011;45869;52.698;6.210;2022-10-16T05:34:41;5.38;;;2.05;;
60016;SDS011;45869;52.698;6.210;2022-10-16T05:42:56;4.72;;;2.15;;
60016;SDS011;45869;52.698;6.210;2022-10-16T05:45:25;7.05;;;2.05;;
60016;SDS011;45869;52.698;6.210;2022-10-16T05:48:11;3.92;;;2.10;;
60016;SDS011;45869;52.698;6.210;2022-10-16T05:53:41;4.15;;;1.85;;
60016;SDS011;45869;52.698;6.210;2022-10-16T05:56:08;5.43;;;1.83;;
60016;SDS011;45869;52.698;6.210;2022-10-16T05:58:35;4.50;;;1.98;;
60016;SDS011;45869;52.698;6.210;2022-10-16T06:01:03;5.10;;;1.90;;
60016;SDS011;45869;52.698;6.210;2022-10-16T06:03:29;5.60;;;2.22;;
60016;SDS011;45869;52.698;6.210;2022-10-16T06:05:55;5.40;;;1.90;;
60016;SDS011;45869;52.698;6.210;2022-10-16T06:08:22;4.13;;;1.70;;
60016;SDS011;45869;52.698;6.210;2022-10-16T06:10:49;6.00;;;2.20;;
60016;SDS011;45869;52.698;6.210;2022-10-16T06:13:18;4.53;;;1.77;;
60016;SDS011;45869;52.698;6.210;2022-10-16T06:15:44;4.55;;;1.88;;
60016;SDS011;45869;52.698;6.210;2022-10-16T06:18:10;5.32;;;2.00;;
60016;SDS011;45869;52.698;6.210;2022-10-16T06:20:36;4.90;;;2.15;;
60016;SDS011;45869;52.698;6.210;2022-10-16T06:23:03;3.80;;;1.83;;
60016;SDS011;45869;52.698;6.210;2022-10-16T06:25:30;5.47;;;1.92;;
60016;SDS011;45869;52.698;6.210;2022-10-16T06:27:56;4.57;;;2.00;;
60016;SDS011;45869;52.698;6.210;2022-10-16T06:30:24;6.65;;;2.10;;
60016;SDS011;45869;52.698;6.210;2022-10-16T06:32:51;4.53;;;2.15;;
60016;SDS011;45869;52.698;6.210;2022-10-16T06:35:19;4.97;;;2.10;;
60016;SDS011;45869;52.698;6.210;2022-10-16T06:37:52;6.55;;;2.05;;
60016;SDS011;45869;52.698;6.210;2022-10-16T06:40:18;3.65;;;1.73;;
60016;SDS011;45869;52.698;6.210;2022-10-16T06:42:44;7.72;;;1.90;;
60016;SDS011;45869;52.698;6.210;2022-10-16T06:45:10;4.85;;;1.55;;
60016;SDS011;45869;52.698;6.210;2022-10-16T06:47:37;4.35;;;1.80;;
60016;SDS011;45869;52.698;6.210;2022-10-16T06:50:03;5.00;;;1.80;;
60016;SDS011;45869;52.698;6.210;2022-10-16T06:52:32;4.38;;;1.50;;
60016;SDS011;45869;52.698;6.210;2022-10-16T06:54:58;4.90;;;1.70;;
60016;SDS011;45869;52.698;6.210;2022-10-16T06:57:24;5.10;;;1.73;;
60016;SDS011;45869;52.698;6.210;2022-10-16T06:59:50;6.63;;;1.70;;
60016;SDS011;45869;52.698;6.210;2022-10-16T07:02:16;5.80;;;1.60;;
60016;SDS011;45869;52.698;6.210;2022-10-16T07:04:42;4.85;;;1.83;;
60016;SDS011;45869;52.698;6.210;2022-10-16T07:07:08;5.50;;;1.75;;
60016;SDS011;45869;52.698;6.210;2022-10-16T07:09:34;3.40;;;1.33;;
60016;SDS011;45869;52.698;6.210;2022-10-16T07:12:00;4.32;;;1.52;;
60016;SDS011;45869;52.698;6.210;2022-10-16T07:14:26;4.93;;;1.20;;
60016;SDS011;45869;52.698;6.210;2022-10-16T07:16:52;5.00;;;1.40;;
60016;SDS011;45869;52.698;6.210;2022-10-16T07:19:21;6.40;;;1.50;;
60016;SDS011;45869;52.698;6.210;2022-10-16T07:21:47;5.57;;;1.30;;
60016;SDS011;45869;52.698;6.210;2022-10-16T07:24:14;3.97;;;1.10;;
60016;SDS011;45869;52.698;6.210;2022-10-16T07:26:41;7.32;;;1.20;;
60016;SDS011;45869;52.698;6.210;2022-10-16T07:29:11;4.13;;;1.00;;
60016;SDS011;45869;52.698;6.210;2022-10-16T07:31:47;3.75;;;1.10;;
60016;SDS011;45869;52.698;6.210;2022-10-16T07:34:14;5.05;;;0.93;;
60016;SDS011;45869;52.698;6.210;2022-10-16T07:36:40;3.60;;;1.00;;
60016;SDS011;45869;52.698;6.210;2022-10-16T07:39:06;4.63;;;1.08;;
60016;SDS011;45869;52.698;6.210;2022-10-16T07:41:32;2.20;;;0.70;;
60016;SDS011;45869;52.698;6.210;2022-10-16T07:44:01;3.92;;;0.80;;
60016;SDS011;45869;52.698;6.210;2022-10-16T07:46:43;4.40;;;0.70;;
60016;SDS011;45869;52.698;6.210;2022-10-16T07:49:15;6.47;;;0.50;;
60016;SDS011;45869;52.698;6.210;2022-10-16T07:51:41;2.80;;;0.50;;
60016;SDS011;45869;52.698;6.210;2022-10-16T07:54:08;3.95;;;0.60;;
60016;SDS011;45869;52.698;6.210;2022-10-16T07:56:34;2.92;;;0.70;;
60016;SDS011;45869;52.698;6.210;2022-10-16T07:59:00;2.92;;;0.70;;
60016;SDS011;45869;52.698;6.210;2022-10-16T08:01:26;2.97;;;0.70;;
60016;SDS011;45869;52.698;6.210;2022-10-16T08:03:52;3.25;;;0.90;;
60016;SDS011;45869;52.698;6.210;2022-10-16T08:06:18;4.20;;;0.70;;
60016;SDS011;45869;52.698;6.210;2022-10-16T08:15:43;7.35;;;1.55;;
60016;SDS011;45869;52.698;6.210;2022-10-16T08:18:10;4.82;;;1.70;;
60016;SDS011;45869;52.698;6.210;2022-10-16T08:20:36;3.50;;;1.30;;
60016;SDS011;45869;52.698;6.210;2022-10-16T08:23:02;5.63;;;1.85;;
60016;SDS011;45869;52.698;6.210;2022-10-16T08:25:28;4.47;;;1.50;;
60016;SDS011;45869;52.698;6.210;2022-10-16T08:27:55;4.47;;;1.65;;
60016;SDS011;45869;52.698;6.210;2022-10-16T08:30:21;5.03;;;1.73;;
60016;SDS011;45869;52.698;6.210;2022-10-16T08:32:48;4.95;;;1.73;;
60016;SDS011;45869;52.698;6.210;2022-10-16T08:35:14;7.25;;;2.58;;
60016;SDS011;45869;52.698;6.210;2022-10-16T08:37:41;5.53;;;1.80;;
60016;SDS011;45869;52.698;6.210;2022-10-16T08:40:10;4.88;;;1.77;;
60016;SDS011;45869;52.698;6.210;2022-10-16T08:45:43;6.00;;;1.83;;
60016;SDS011;45869;52.698;6.210;2022-10-16T08:48:29;6.20;;;1.60;;
60016;SDS011;45869;52.698;6.210;2022-10-16T08:50:56;4.25;;;1.30;;
60016;SDS011;45869;52.698;6.210;2022-10-16T08:53:43;5.43;;;1.48;;
60016;SDS011;45869;52.698;6.210;2022-10-16T08:56:10;6.72;;;1.60;;
60016;SDS011;45869;52.698;6.210;2022-10-16T08:58:36;6.10;;;1.40;;
60016;SDS011;45869;52.698;6.210;2022-10-16T09:01:10;4.95;;;1.30;;
60016;SDS011;45869;52.698;6.210;2022-10-16T09:06:22;5.88;;;1.48;;
60016;SDS011;45869;52.698;6.210;2022-10-16T09:09:15;3.08;;;1.08;;
60016;SDS011;45869;52.698;6.210;2022-10-16T09:12:01;6.97;;;1.45;;
60016;SDS011;45869;52.698;6.210;2022-10-16T09:19:43;5.40;;;1.20;;
60016;SDS011;45869;52.698;6.210;2022-10-16T09:22:14;10.07;;;1.25;;
60016;SDS011;45869;52.698;6.210;2022-10-16T09:24:41;6.65;;;1.10;;
60016;SDS011;45869;52.698;6.210;2022-10-16T09:27:11;8.27;;;1.67;;
60016;SDS011;45869;52.698;6.210;2022-10-16T09:29:37;5.55;;;1.02;;
60016;SDS011;45869;52.698;6.210;2022-10-16T09:32:11;4.90;;;1.02;;
60016;SDS011;45869;52.698;6.210;2022-10-16T09:34:39;6.32;;;1.02;;
60016;SDS011;45869;52.698;6.210;2022-10-16T09:37:11;5.10;;;1.08;;
60016;SDS011;45869;52.698;6.210;2022-10-16T09:39:51;8.05;;;1.27;;
60016;SDS011;45869;52.698;6.210;2022-10-16T09:47:52;6.65;;;1.00;;
60016;SDS011;45869;52.698;6.210;2022-10-16T09:50:20;5.38;;;1.00;;
60016;SDS011;45869;52.698;6.210;2022-10-16T09:52:47;5.40;;;1.00;;
60016;SDS011;45869;52.698;6.210;2022-10-16T09:55:14;5.80;;;1.30;;
60016;SDS011;45869;52.698;6.210;2022-10-16T09:57:53;5.13;;;1.02;;
60016;SDS011;45869;52.698;6.210;2022-10-16T10:00:20;6.35;;;1.50;;
60016;SDS011;45869;52.698;6.210;2022-10-16T10:02:46;6.18;;;1.10;;
60016;SDS011;45869;52.698;6.210;2022-10-16T10:05:31;6.70;;;1.35;;
60016;SDS011;45869;52.698;6.210;2022-10-16T10:07:58;5.28;;;1.20;;
60016;SDS011;45869;52.698;6.210;2022-10-16T10:10:37;6.15;;;1.58;;
60016;SDS011;45869;52.698;6.210;2022-10-16T10:13:14;7.60;;;1.48;;
60016;SDS011;45869;52.698;6.210;2022-10-16T10:15:42;9.50;;;1.38;;
60016;SDS011;45869;52.698;6.210;2022-10-16T10:18:18;9.13;;;1.65;;
60016;SDS011;45869;52.698;6.210;2022-10-16T10:20:45;5.18;;;1.13;;
60016;SDS011;45869;52.698;6.210;2022-10-16T10:23:29;6.43;;;1.55;;
60016;SDS011;45869;52.698;6.210;2022-10-16T10:26:12;7.22;;;1.52;;
60016;SDS011;45869;52.698;6.210;2022-10-16T10:28:55;6.40;;;1.30;;
60016;SDS011;45869;52.698;6.210;2022-10-16T10:31:36;6.50;;;1.55;;
60016;SDS011;45869;52.698;6.210;2022-10-16T10:34:25;7.97;;;1.67;;
60016;SDS011;45869;52.698;6.210;2022-10-16T10:36:54;6.70;;;1.17;;
60016;SDS011;45869;52.698;6.210;2022-10-16T10:39:25;6.20;;;1.20;;
60016;SDS011;45869;52.698;6.210;2022-10-16T10:47:26;7.75;;;1.20;;
60016;SDS011;45869;52.698;6.210;2022-10-16T10:55:23;5.70;;;1.25;;
60016;SDS011;45869;52.698;6.210;2022-10-16T11:00:21;8.38;;;1.38;;
60016;SDS011;45869;52.698;6.210;2022-10-16T11:05:31;8.65;;;1.65;;
60016;SDS011;45869;52.698;6.210;2022-10-16T11:10:34;7.25;;;1.40;;
60016;SDS011;45869;52.698;6.210;2022-10-16T11:13:10;9.25;;;1.48;;
60016;SDS011;45869;52.698;6.210;2022-10-16T11:15:42;7.00;;;1.20;;
60016;SDS011;45869;52.698;6.210;2022-10-16T11:18:16;9.02;;;1.77;;
60016;SDS011;45869;52.698;6.210;2022-10-16T11:21:02;6.80;;;1.25;;
60016;SDS011;45869;52.698;6.210;2022-10-16T11:23:38;8.98;;;1.55;;
60016;SDS011;45869;52.698;6.210;2022-10-16T11:26:09;5.35;;;1.25;;
60016;SDS011;45869;52.698;6.210;2022-10-16T11:28:43;6.82;;;1.23;;
60016;SDS011;45869;52.698;6.210;2022-10-16T11:34:03;8.30;;;1.52;;
60016;SDS011;45869;52.698;6.210;2022-10-16T11:36:41;6.53;;;1.35;;
60016;SDS011;45869;52.698;6.210;2022-10-16T11:39:17;11.68;;;1.52;;
60016;SDS011;45869;52.698;6.210;2022-10-16T11:46:50;10.50;;;1.60;;
60016;SDS011;45869;52.698;6.210;2022-10-16T11:49:21;9.13;;;1.55;;
60016;SDS011;45869;52.698;6.210;2022-10-16T11:51:48;14.30;;;1.88;;
60016;SDS011;45869;52.698;6.210;2022-10-16T12:05:28;8.25;;;1.63;;
60016;SDS011;45869;52.698;6.210;2022-10-16T12:08:13;10.32;;;1.42;;
60016;SDS011;45869;52.698;6.210;2022-10-16T12:10:44;7.90;;;1.30;;
60016;SDS011;45869;52.698;6.210;2022-10-16T12:18:43;7.38;;;1.23;;
60016;SDS011;45869;52.698;6.210;2022-10-16T12:21:09;7.13;;;1.05;;
60016;SDS011;45869;52.698;6.210;2022-10-16T12:26:29;6.85;;;1.00;;
60016;SDS011;45869;52.698;6.210;2022-10-16T12:29:12;8.30;;;1.30;;
60016;SDS011;45869;52.698;6.210;2022-10-16T12:31:42;8.63;;;1.45;;
60016;SDS011;45869;52.698;6.210;2022-10-16T12:34:21;6.22;;;1.10;;
60016;SDS011;45869;52.698;6.210;2022-10-16T12:36:49;5.38;;;1.42;;
60016;SDS011;45869;52.698;6.210;2022-10-16T12:39:22;6.68;;;1.00;;
60016;SDS011;45869;52.698;6.210;2022-10-16T12:41:59;6.03;;;1.20;;
60016;SDS011;45869;52.698;6.210;2022-10-16T12:44:26;10.57;;;1.48;;
60016;SDS011;45869;52.698;6.210;2022-10-16T12:46:57;7.95;;;1.40;;
60016;SDS011;45869;52.698;6.210;2022-10-16T12:51:55;6.97;;;1.20;;
60016;SDS011;45869;52.698;6.210;2022-10-16T12:54:37;7.60;;;1.38;;
60016;SDS011;45869;52.698;6.210;2022-10-16T13:02:29;8.93;;;1.40;;
60016;SDS011;45869;52.698;6.210;2022-10-16T13:05:08;4.45;;;0.98;;
60016;SDS011;45869;52.698;6.210;2022-10-16T13:10:13;12.75;;;1.70;;
60016;SDS011;45869;52.698;6.210;2022-10-16T13:12:48;7.28;;;1.20;;
60016;SDS011;45869;52.698;6.210;2022-10-16T13:15:19;8.68;;;1.42;;
60016;SDS011;45869;52.698;6.210;2022-10-16T13:17:59;8.38;;;1.33;;
60016;SDS011;45869;52.698;6.210;2022-10-16T13:20:35;6.40;;;1.13;;
60016;SDS011;45869;52.698;6.210;2022-10-16T13:23:09;6.47;;;1.38;;
60016;SDS011;45869;52.698;6.210;2022-10-16T13:28:11;8.82;;;1.58;;
60016;SDS011;45869;52.698;6.210;2022-10-16T13:30:51;7.43;;;1.20;;
60016;SDS011;45869;52.698;6.210;2022-10-16T13:33:24;7.95;;;1.25;;
60016;SDS011;45869;52.698;6.210;2022-10-16T13:35:54;8.55;;;1.42;;
60016;SDS011;45869;52.698;6.210;2022-10-16T13:38:22;7.90;;;1.27;;
60016;SDS011;45869;52.698;6.210;2022-10-16T13:41:33;6.90;;;1.05;;
60016;SDS011;45869;52.698;6.210;2022-10-16T13:43:55;5.55;;;1.48;;
60016;SDS011;45869;52.698;6.210;2022-10-16T13:46:22;5.55;;;1.00;;
60016;SDS011;45869;52.698;6.210;2022-10-16T13:48:59;6.53;;;1.00;;
60016;SDS011;45869;52.698;6.210;2022-10-16T13:51:25;8.75;;;1.15;;
60016;SDS011;45869;52.698;6.210;2022-10-16T13:53:51;7.22;;;1.25;;
60016;SDS011;45869;52.698;6.210;2022-10-16T13:56:19;6.22;;;1.35;;
60016;SDS011;45869;52.698;6.210;2022-10-16T13:58:45;7.60;;;1.15;;
60016;SDS011;45869;52.698;6.210;2022-10-16T14:01:25;6.43;;;1.45;;
60016;SDS011;45869;52.698;6.210;2022-10-16T14:03:52;6.57;;;1.23;;
60016;SDS011;45869;52.698;6.210;2022-10-16T14:06:21;9.05;;;1.45;;
60016;SDS011;45869;52.698;6.210;2022-10-16T14:08:49;9.45;;;1.55;;
60016;SDS011;45869;52.698;6.210;2022-10-16T14:11:20;6.68;;;1.67;;
60016;SDS011;45869;52.698;6.210;2022-10-16T14:13:48;8.05;;;1.40;;
60016;SDS011;45869;52.698;6.210;2022-10-16T14:16:16;7.32;;;1.20;;
60016;SDS011;45869;52.698;6.210;2022-10-16T14:18:44;8.30;;;1.30;;
60016;SDS011;45869;52.698;6.210;2022-10-16T14:21:12;4.97;;;1.10;;
60016;SDS011;45869;52.698;6.210;2022-10-16T14:23:43;8.27;;;1.40;;
60016;SDS011;45869;52.698;6.210;2022-10-16T14:28:38;7.28;;;1.33;;
60016;SDS011;45869;52.698;6.210;2022-10-16T14:31:24;7.15;;;1.58;;
60016;SDS011;45869;52.698;6.210;2022-10-16T14:33:51;6.88;;;1.38;;
60016;SDS011;45869;52.698;6.210;2022-10-16T14:36:20;6.35;;;1.40;;
60016;SDS011;45869;52.698;6.210;2022-10-16T14:46:12;6.20;;;1.27;;
60016;SDS011;45869;52.698;6.210;2022-10-16T14:48:42;6.90;;;1.52;;
60016;SDS011;45869;52.698;6.210;2022-10-16T14:51:14;6.95;;;1.42;;
60016;SDS011;45869;52.698;6.210;2022-10-16T14:53:41;8.13;;;1.40;;
60016;SDS011;45869;52.698;6.210;2022-10-16T14:56:26;7.20;;;1.25;;
60016;SDS011;45869;52.698;6.210;2022-10-16T14:58:54;3.97;;;0.95;;
60016;SDS011;45869;52.698;6.210;2022-10-16T15:01:21;6.75;;;1.27;;
60016;SDS011;45869;52.698;6.210;2022-10-16T15:03:47;8.30;;;1.10;;
60016;SDS011;45869;52.698;6.210;2022-10-16T15:06:16;7.20;;;1.15;;
60016;SDS011;45869;52.698;6.210;2022-10-16T15:08:42;6.65;;;1.25;;
60016;SDS011;45869;52.698;6.210;2022-10-16T15:11:18;8.35;;;1.42;;
60016;SDS011;45869;52.698;6.210;2022-10-16T15:13:44;5.57;;;1.13;;
60016;SDS011;45869;52.698;6.210;2022-10-16T15:16:14;4.35;;;1.05;;
60016;SDS011;45869;52.698;6.210;2022-10-16T15:18:41;8.90;;;1.40;;
60016;SDS011;45869;52.698;6.210;2022-10-16T15:21:07;7.68;;;1.20;;
60016;SDS011;45869;52.698;6.210;2022-10-16T15:23:37;7.75;;;1.40;;
60016;SDS011;45869;52.698;6.210;2022-10-16T15:26:03;4.25;;;0.98;;
60016;SDS011;45869;52.698;6.210;2022-10-16T15:28:32;9.10;;;1.48;;
60016;SDS011;45869;52.698;6.210;2022-10-16T15:30:58;8.55;;;1.45;;
60016;SDS011;45869;52.698;6.210;2022-10-16T15:33:25;6.70;;;1.55;;
60016;SDS011;45869;52.698;6.210;2022-10-16T15:35:53;5.82;;;1.10;;
60016;SDS011;45869;52.698;6.210;2022-10-16T15:38:20;6.28;;;1.55;;
60016;SDS011;45869;52.698;6.210;2022-10-16T15:40:47;6.35;;;1.42;;
60016;SDS011;45869;52.698;6.210;2022-10-16T15:43:13;5.55;;;1.20;;
60016;SDS011;45869;52.698;6.210;2022-10-16T15:45:42;7.22;;;1.70;;
60016;SDS011;45869;52.698;6.210;2022-10-16T15:48:12;8.23;;;1.75;;
60016;SDS011;45869;52.698;6.210;2022-10-16T15:50:44;6.78;;;1.33;;
60016;SDS011;45869;52.698;6.210;2022-10-16T15:53:13;8.13;;;1.73;;
60016;SDS011;45869;52.698;6.210;2022-10-16T15:55:39;6.63;;;1.65;;
60016;SDS011;45869;52.698;6.210;2022-10-16T15:58:11;4.93;;;1.30;;
60016;SDS011;45869;52.698;6.210;2022-10-16T16:00:37;6.50;;;1.30;;
60016;SDS011;45869;52.698;6.210;2022-10-16T16:03:03;7.85;;;1.55;;
60016;SDS011;45869;52.698;6.210;2022-10-16T16:05:29;11.13;;;2.15;;
60016;SDS011;45869;52.698;6.210;2022-10-16T16:07:56;6.55;;;1.90;;
60016;SDS011;45869;52.698;6.210;2022-10-16T16:10:22;5.15;;;1.73;;
60016;SDS011;45869;52.698;6.210;2022-10-16T16:12:48;8.18;;;2.10;;
60016;SDS011;45869;52.698;6.210;2022-10-16T16:15:21;6.70;;;2.50;;
60016;SDS011;45869;52.698;6.210;2022-10-16T16:17:47;8.25;;;3.75;;
60016;SDS011;45869;52.698;6.210;2022-10-16T16:20:13;10.23;;;4.60;;
60016;SDS011;45869;52.698;6.210;2022-10-16T16:22:39;12.85;;;5.72;;
60016;SDS011;45869;52.698;6.210;2022-10-16T16:25:05;9.98;;;5.80;;
60016;SDS011;45869;52.698;6.210;2022-10-16T16:27:32;13.75;;;5.50;;
60016;SDS011;45869;52.698;6.210;2022-10-16T16:29:59;11.45;;;5.38;;
60016;SDS011;45869;52.698;6.210;2022-10-16T16:32:25;9.35;;;4.43;;
60016;SDS011;45869;52.698;6.210;2022-10-16T16:34:51;10.63;;;4.20;;
60016;SDS011;45869;52.698;6.210;2022-10-16T16:37:17;11.48;;;4.00;;
60016;SDS011;45869;52.698;6.210;2022-10-16T16:39:43;8.75;;;3.80;;
60016;SDS011;45869;52.698;6.210;2022-10-16T16:42:09;9.85;;;4.05;;
60016;SDS011;45869;52.698;6.210;2022-10-16T16:44:35;8.07;;;3.08;;
60016;SDS011;45869;52.698;6.210;2022-10-16T16:47:02;8.32;;;3.47;;
60016;SDS011;45869;52.698;6.210;2022-10-16T16:49:29;7.00;;;3.53;;
60016;SDS011;45869;52.698;6.210;2022-10-16T16:51:55;8.98;;;3.53;;
60016;SDS011;45869;52.698;6.210;2022-10-16T16:54:21;10.13;;;3.83;;
60016;SDS011;45869;52.698;6.210;2022-10-16T16:56:47;8.90;;;3.40;;
60016;SDS011;45869;52.698;6.210;2022-10-16T16:59:14;8.13;;;3.40;;
60016;SDS011;45869;52.698;6.210;2022-10-16T17:01:40;8.32;;;3.47;;
60016;SDS011;45869;52.698;6.210;2022-10-16T17:04:06;6.13;;;3.58;;
60016;SDS011;45869;52.698;6.210;2022-10-16T17:06:32;10.82;;;3.72;;
60016;SDS011;45869;52.698;6.210;2022-10-16T17:09:00;7.60;;;3.25;;
60016;SDS011;45869;52.698;6.210;2022-10-16T17:11:27;6.40;;;3.60;;
60016;SDS011;45869;52.698;6.210;2022-10-16T17:13:54;7.88;;;3.30;;
60016;SDS011;45869;52.698;6.210;2022-10-16T17:16:21;7.28;;;3.20;;
60016;SDS011;45869;52.698;6.210;2022-10-16T17:18:48;8.13;;;3.85;;
60016;SDS011;45869;52.698;6.210;2022-10-16T17:21:14;7.63;;;4.00;;
60016;SDS011;45869;52.698;6.210;2022-10-16T17:23:40;8.35;;;4.13;;
60016;SDS011;45869;52.698;6.210;2022-10-16T17:26:07;9.43;;;3.83;;
60016;SDS011;45869;52.698;6.210;2022-10-16T17:28:33;7.57;;;3.75;;
60016;SDS011;45869;52.698;6.210;2022-10-16T17:31:06;8.55;;;3.80;;
60016;SDS011;45869;52.698;6.210;2022-10-16T17:33:32;8.37;;;3.97;;
60016;SDS011;45869;52.698;6.210;2022-10-16T17:35:58;7.90;;;4.22;;
60016;SDS011;45869;52.698;6.210;2022-10-16T17:41:17;7.68;;;3.97;;
60016;SDS011;45869;52.698;6.210;2022-10-16T17:43:43;8.93;;;4.40;;
60016;SDS011;45869;52.698;6.210;2022-10-16T17:46:10;9.60;;;4.57;;
60016;SDS011;45869;52.698;6.210;2022-10-16T17:48:40;8.32;;;4.40;;